createdAt,value
2017-09-03T00:00:32.493Z,96.40
2017-09-03T00:03:00.126Z,96.30
2017-09-03T00:05:27.709Z,96.20
2017-09-03T00:07:55.293Z,96.20
2017-09-03T00:10:24.134Z,96.20
2017-09-03T00:12:51.735Z,96.40
2017-09-03T00:15:19.323Z,96.40
2017-09-03T00:17:46.928Z,96.40
2017-09-03T00:20:14.600Z,96.50
2017-09-03T00:22:42.203Z,96.60
2017-09-03T00:25:09.780Z,96.40
2017-09-03T00:27:37.594Z,96.10
2017-09-03T00:30:05.935Z,95.60
2017-09-03T00:32:33.504Z,95.70
2017-09-03T00:35:01.098Z,95.40
2017-09-03T00:37:29.431Z,95.10
2017-09-03T00:39:57.056Z,95.10
2017-09-03T00:42:24.652Z,95.30
2017-09-03T00:44:52.619Z,95.60
2017-09-03T00:47:20.209Z,95.40
2017-09-03T00:49:47.805Z,95.50
2017-09-03T00:52:15.397Z,95.80
2017-09-03T00:54:42.999Z,95.90
2017-09-03T00:57:10.587Z,95.90
2017-09-03T00:59:38.169Z,95.90
2017-09-03T01:02:06.146Z,96.10
2017-09-03T01:04:33.723Z,96.10
2017-09-03T01:07:01.305Z,96.10
2017-09-03T01:09:28.901Z,95.80
2017-09-03T01:11:56.469Z,95.70
2017-09-03T01:14:24.111Z,95.30
2017-09-03T01:16:51.673Z,95.20
2017-09-03T01:19:19.575Z,95.50
2017-09-03T01:21:47.142Z,95.70
2017-09-03T01:24:14.722Z,95.80
2017-09-03T01:26:43.114Z,96.00
2017-09-03T01:29:10.681Z,96.00
2017-09-03T01:31:38.289Z,96.00
2017-09-03T01:34:05.861Z,95.90
2017-09-03T01:36:34.327Z,95.70
2017-09-03T01:39:01.924Z,96.00
2017-09-03T01:41:29.631Z,95.40
2017-09-03T01:43:57.332Z,95.90
2017-09-03T01:46:24.974Z,96.20
2017-09-03T01:48:52.595Z,96.40
2017-09-03T01:51:20.179Z,96.50
2017-09-03T01:53:48.131Z,96.70
2017-09-03T01:56:15.726Z,96.50
2017-09-03T01:58:43.322Z,96.40
2017-09-03T02:01:11.126Z,96.30
2017-09-03T02:03:38.771Z,96.10
2017-09-03T02:06:06.381Z,96.50
2017-09-03T02:08:33.958Z,96.60
2017-09-03T02:11:02.579Z,96.30
2017-09-03T02:13:30.173Z,96.20
2017-09-03T02:15:57.805Z,96.10
2017-09-03T02:18:25.390Z,96.20
2017-09-03T02:20:52.958Z,96.30
2017-09-03T02:23:20.570Z,96.40
2017-09-03T02:25:48.179Z,96.40
2017-09-03T02:28:16.106Z,96.10
2017-09-03T02:30:43.678Z,96.30
2017-09-03T02:33:11.268Z,96.30
2017-09-03T02:35:38.868Z,96.30
2017-09-03T02:38:06.440Z,96.50
2017-09-03T02:40:34.037Z,96.60
2017-09-03T02:43:01.595Z,96.20
2017-09-03T02:45:29.462Z,96.30
2017-09-03T02:47:57.909Z,96.50
2017-09-03T02:50:25.491Z,96.20
2017-09-03T02:52:53.097Z,96.40
2017-09-03T02:55:20.701Z,96.50
2017-09-03T02:57:48.285Z,96.60
2017-09-03T03:00:15.913Z,96.40
2017-09-03T03:02:43.820Z,96.30
2017-09-03T03:05:11.410Z,96.50
2017-09-03T03:07:38.970Z,96.30
2017-09-03T03:10:06.588Z,96.40
2017-09-03T03:12:34.168Z,96.70
2017-09-03T03:15:01.773Z,96.70
2017-09-03T03:17:29.345Z,96.70
2017-09-03T03:19:57.232Z,96.90
2017-09-03T03:22:24.821Z,96.70
2017-09-03T03:24:52.453Z,96.80
2017-09-03T03:27:20.057Z,96.90
2017-09-03T03:29:47.618Z,96.90
2017-09-03T03:32:15.209Z,97.00
2017-09-03T03:34:42.794Z,97.10
2017-09-03T03:37:10.760Z,96.80
2017-09-03T03:39:38.339Z,96.80
2017-09-03T03:42:05.906Z,96.60
2017-09-03T03:44:33.508Z,96.70
2017-09-03T03:47:01.077Z,97.10
2017-09-03T03:49:28.686Z,97.30
2017-09-03T03:51:56.254Z,96.90
2017-09-03T03:54:24.910Z,96.70
2017-09-03T03:56:52.539Z,96.70
2017-09-03T03:59:20.120Z,96.70
2017-09-03T04:01:47.763Z,96.90
2017-09-03T04:04:15.515Z,96.70
2017-09-03T04:06:43.120Z,96.90
2017-09-03T04:09:10.705Z,96.90
2017-09-03T04:11:38.625Z,97.20
2017-09-03T04:14:06.199Z,97.20
2017-09-03T04:16:33.795Z,96.90
2017-09-03T04:19:01.378Z,96.80
2017-09-03T04:21:28.951Z,96.70
2017-09-03T04:23:56.768Z,97.00
2017-09-03T04:26:25.183Z,97.00
2017-09-03T04:28:53.060Z,96.90
2017-09-03T04:31:20.626Z,96.90
2017-09-03T04:33:48.201Z,96.50
2017-09-03T04:36:15.801Z,96.40
2017-09-03T04:38:43.397Z,96.70
2017-09-03T04:41:11.014Z,97.00
2017-09-03T04:43:38.602Z,97.00
2017-09-03T04:46:06.201Z,97.00
2017-09-03T04:48:33.767Z,96.90
2017-09-03T04:51:01.729Z,96.70
2017-09-03T04:53:29.288Z,96.60
2017-09-03T04:55:56.867Z,96.80
2017-09-03T04:58:24.465Z,97.00
2017-09-03T05:00:52.036Z,96.70
2017-09-03T05:03:19.692Z,96.30
2017-09-03T05:05:47.273Z,96.30
2017-09-03T05:08:15.126Z,96.40
2017-09-03T05:10:42.795Z,96.60
2017-09-03T05:13:10.369Z,96.90
2017-09-03T05:15:37.934Z,97.10
2017-09-03T05:18:05.514Z,97.00
2017-09-03T05:20:33.159Z,96.40
2017-09-03T05:23:00.751Z,96.30
2017-09-03T05:25:28.626Z,96.20
2017-09-03T05:27:56.209Z,96.20
2017-09-03T05:30:23.780Z,96.30
2017-09-03T05:32:52.299Z,95.90
2017-09-03T05:35:19.877Z,96.50
2017-09-03T05:37:47.514Z,96.70
2017-09-03T05:40:15.081Z,97.00
2017-09-03T05:42:43.012Z,96.80
2017-09-03T05:45:10.603Z,96.50
2017-09-03T05:47:38.195Z,96.70
2017-09-03T05:50:05.813Z,96.40
2017-09-03T05:52:33.405Z,96.40
2017-09-03T05:55:00.993Z,96.40
2017-09-03T05:57:28.563Z,96.60
2017-09-03T05:59:56.567Z,96.30
2017-09-03T06:02:24.164Z,96.30
2017-09-03T06:04:51.740Z,95.70
2017-09-03T06:07:19.343Z,96.10
2017-09-03T06:09:47.687Z,95.60
2017-09-03T06:12:16.113Z,95.60
2017-09-03T06:14:43.678Z,95.50
2017-09-03T06:17:11.639Z,95.10
2017-09-03T06:19:40.074Z,95.00
2017-09-03T06:22:07.652Z,94.80
2017-09-03T06:24:35.282Z,94.80
2017-09-03T06:27:02.888Z,95.10
2017-09-03T06:29:30.511Z,94.80
2017-09-03T06:31:58.108Z,93.80
2017-09-03T06:34:25.943Z,93.80
2017-09-03T06:36:53.538Z,93.80
2017-09-03T06:39:21.153Z,93.90
2017-09-03T06:41:48.763Z,94.30
2017-09-03T06:44:16.359Z,94.30
2017-09-03T06:46:43.965Z,94.20
2017-09-03T06:49:11.548Z,93.70
2017-09-03T06:51:39.395Z,93.40
2017-09-03T06:54:07.011Z,93.20
2017-09-03T06:56:34.598Z,93.10
2017-09-03T06:59:02.200Z,92.90
2017-09-03T07:01:30.765Z,92.80
2017-09-03T07:03:58.370Z,92.90
2017-09-03T07:06:25.974Z,92.70
2017-09-03T07:08:54.828Z,92.40
2017-09-03T07:11:22.412Z,92.50
2017-09-03T07:13:49.994Z,92.40
2017-09-03T07:16:17.613Z,92.40
2017-09-03T07:18:45.209Z,92.50
2017-09-03T07:21:12.827Z,92.10
2017-09-03T07:23:40.442Z,92.40
2017-09-03T07:26:08.400Z,91.90
2017-09-03T07:28:37.039Z,91.60
2017-09-03T07:31:04.845Z,91.80
2017-09-03T07:33:32.447Z,91.30
2017-09-03T07:36:00.781Z,91.10
2017-09-03T07:38:28.887Z,91.10
2017-09-03T07:40:56.473Z,90.40
2017-09-03T07:43:24.376Z,90.40
2017-09-03T07:45:51.952Z,90.30
2017-09-03T07:48:19.531Z,90.30
2017-09-03T07:50:47.936Z,90.10
2017-09-03T07:53:15.534Z,90.10
2017-09-03T07:55:43.492Z,89.40
2017-09-03T07:58:11.082Z,89.10
2017-09-03T08:00:38.637Z,87.60
2017-09-03T08:03:06.312Z,87.50
2017-09-03T08:05:33.887Z,87.60
2017-09-03T08:08:02.154Z,87.50
2017-09-03T08:10:29.735Z,86.90
2017-09-03T08:12:57.951Z,86.10
2017-09-03T08:15:25.578Z,86.80
2017-09-03T08:17:53.140Z,86.90
2017-09-03T08:20:20.744Z,87.00
2017-09-03T08:22:48.336Z,85.80
2017-09-03T08:25:15.951Z,84.90
2017-09-03T08:27:43.565Z,85.70
2017-09-03T08:30:11.463Z,86.40
2017-09-03T08:32:39.059Z,86.90
2017-09-03T08:35:06.640Z,88.20
2017-09-03T08:37:34.240Z,88.10
2017-09-03T08:40:01.830Z,87.60
2017-09-03T08:42:29.443Z,85.80
2017-09-03T08:44:57.043Z,85.30
2017-09-03T08:47:25.022Z,83.10
2017-09-03T08:49:52.611Z,82.50
2017-09-03T08:52:20.310Z,81.10
2017-09-03T08:54:47.912Z,81.70
2017-09-03T08:57:15.481Z,82.40
2017-09-03T08:59:44.367Z,82.00
2017-09-03T09:02:12.027Z,81.30
2017-09-03T09:04:40.816Z,80.00
2017-09-03T09:07:08.432Z,79.90
2017-09-03T09:09:36.006Z,79.40
2017-09-03T09:12:03.578Z,79.70
2017-09-03T09:14:31.154Z,78.40
2017-09-03T09:16:59.544Z,78.80
2017-09-03T09:19:27.119Z,78.80
2017-09-03T09:21:55.040Z,79.50
2017-09-03T09:24:22.610Z,79.30
2017-09-03T09:26:50.249Z,81.70
2017-09-03T09:29:18.188Z,80.50
2017-09-03T09:31:45.807Z,80.40
2017-09-03T09:34:13.433Z,81.10
2017-09-03T09:36:41.120Z,80.70
2017-09-03T09:39:08.991Z,79.80
2017-09-03T09:41:36.616Z,79.40
2017-09-03T09:44:04.180Z,78.30
2017-09-03T09:46:31.823Z,78.70
2017-09-03T09:48:59.483Z,77.90
2017-09-03T09:51:27.079Z,77.20
2017-09-03T09:53:54.636Z,76.90
2017-09-03T09:56:27.382Z,77.50
2017-09-03T09:58:54.958Z,77.40
2017-09-03T10:01:22.551Z,76.30
2017-09-03T10:03:50.184Z,77.60
2017-09-03T10:06:17.814Z,78.20
2017-09-03T10:08:45.805Z,76.70
2017-09-03T10:11:13.401Z,75.20
2017-09-03T10:13:41.009Z,74.10
2017-09-03T10:16:08.667Z,71.30
2017-09-03T10:18:36.275Z,70.70
2017-09-03T10:21:03.914Z,67.30
2017-09-03T10:23:31.524Z,64.80
2017-09-03T10:25:59.462Z,63.00
2017-09-03T10:28:27.069Z,61.90
2017-09-03T10:30:54.689Z,60.80
2017-09-03T10:33:22.340Z,60.30
2017-09-03T10:35:49.951Z,59.10
2017-09-03T10:38:17.599Z,55.50
2017-09-03T10:40:45.208Z,53.90
2017-09-03T10:43:13.186Z,49.40
2017-09-03T10:45:40.810Z,46.40
2017-09-03T10:48:08.572Z,42.40
2017-09-03T10:50:36.212Z,39.10
2017-09-03T10:53:03.807Z,37.10
2017-09-03T10:55:31.426Z,33.20
2017-09-03T10:57:59.023Z,33.30
2017-09-03T11:00:26.952Z,33.10
2017-09-03T11:02:54.530Z,29.40
2017-09-03T11:05:22.754Z,31.70
2017-09-03T11:07:50.385Z,30.40
2017-09-03T11:10:18.031Z,29.90
2017-09-03T11:12:46.563Z,29.00
2017-09-03T11:15:14.168Z,30.30
2017-09-03T11:17:42.105Z,30.60
2017-09-03T11:20:09.701Z,33.00
2017-09-03T11:22:37.268Z,35.40
2017-09-03T11:25:04.885Z,38.70
2017-09-03T11:27:32.492Z,40.20
2017-09-03T11:30:00.375Z,43.00
2017-09-03T11:32:27.961Z,37.30
2017-09-03T11:34:55.693Z,32.90
2017-09-03T11:37:23.336Z,34.30
2017-09-03T11:39:50.915Z,37.10
2017-09-03T11:42:18.533Z,36.20
2017-09-03T11:44:46.125Z,38.70
2017-09-03T11:47:14.013Z,37.80
2017-09-03T11:49:41.611Z,35.40
2017-09-03T11:52:09.182Z,34.10
2017-09-03T11:54:36.784Z,34.40
2017-09-03T11:57:04.378Z,34.40
2017-09-03T11:59:32.023Z,33.40
2017-09-03T12:01:59.660Z,33.80
2017-09-03T12:04:27.565Z,36.40
2017-09-03T12:06:55.161Z,35.40
2017-09-03T12:09:24.091Z,36.30
2017-09-03T12:11:51.727Z,35.60
2017-09-03T12:14:20.148Z,35.10
2017-09-03T12:16:47.773Z,35.00
2017-09-03T12:19:15.428Z,35.80
2017-09-03T12:21:43.326Z,36.40
2017-09-03T12:24:10.940Z,34.90
2017-09-03T12:26:38.503Z,33.70
2017-09-03T12:29:06.177Z,35.40
2017-09-03T12:31:33.728Z,38.40
2017-09-03T12:34:01.320Z,39.60
2017-09-03T12:36:28.902Z,38.80
2017-09-03T12:38:57.054Z,38.30
2017-09-03T12:41:24.691Z,37.50
2017-09-03T12:43:52.287Z,40.10
2017-09-03T12:46:19.917Z,38.60
2017-09-03T12:48:47.483Z,37.90
2017-09-03T12:51:15.464Z,35.20
2017-09-03T12:53:43.050Z,37.10
2017-09-03T12:56:10.638Z,39.20
2017-09-03T12:58:38.324Z,28.10
2017-09-03T13:01:05.904Z,28.70
2017-09-03T13:03:33.502Z,29.10
2017-09-03T13:06:01.120Z,30.20
2017-09-03T13:08:29.703Z,32.00
2017-09-03T13:10:57.293Z,33.80
2017-09-03T13:13:24.887Z,31.50
2017-09-03T13:15:52.511Z,29.70
2017-09-03T13:18:20.099Z,29.70
2017-09-03T13:20:47.682Z,30.60
2017-09-03T13:23:15.300Z,31.30
2017-09-03T13:25:43.181Z,32.50
2017-09-03T13:28:11.521Z,34.90
2017-09-03T13:30:39.116Z,35.00
2017-09-03T13:33:07.485Z,38.00
2017-09-03T13:35:35.085Z,38.00
2017-09-03T13:38:02.762Z,37.00
2017-09-03T13:40:30.433Z,36.40
2017-09-03T13:42:58.018Z,37.90
2017-09-03T13:45:25.608Z,40.00
2017-09-03T13:47:53.201Z,39.70
2017-09-03T13:50:21.112Z,39.40
2017-09-03T13:52:48.671Z,39.90
2017-09-03T13:55:17.050Z,40.40
2017-09-03T13:57:44.637Z,40.30
2017-09-03T14:00:12.205Z,41.50
2017-09-03T14:02:40.113Z,41.20
2017-09-03T14:05:07.674Z,42.00
2017-09-03T14:07:35.268Z,40.30
2017-09-03T14:10:02.890Z,41.60
2017-09-03T14:12:30.476Z,40.60
2017-09-03T14:14:58.079Z,41.40
2017-09-03T14:17:25.685Z,40.20
2017-09-03T14:19:53.634Z,41.00
2017-09-03T14:22:21.212Z,41.20
2017-09-03T14:24:48.803Z,41.50
2017-09-03T14:27:16.420Z,41.00
2017-09-03T14:29:44.030Z,40.20
2017-09-03T14:32:11.641Z,41.90
2017-09-03T14:34:39.228Z,40.70
2017-09-03T14:37:07.152Z,40.20
2017-09-03T14:39:34.771Z,42.20
2017-09-03T14:42:02.355Z,41.20
2017-09-03T14:44:29.965Z,41.70
2017-09-03T14:46:58.155Z,38.80
2017-09-03T14:49:25.762Z,41.10
2017-09-03T14:51:53.345Z,39.70
2017-09-03T14:54:21.198Z,41.60
2017-09-03T14:56:48.840Z,41.00
2017-09-03T14:59:16.431Z,41.10
2017-09-03T15:01:44.039Z,41.50
2017-09-03T15:04:11.593Z,41.30
2017-09-03T15:06:39.212Z,42.10
2017-09-03T15:09:06.813Z,42.50
2017-09-03T15:11:34.730Z,44.40
2017-09-03T15:14:02.357Z,44.00
2017-09-03T15:16:29.923Z,41.00
2017-09-03T15:18:57.533Z,41.90
2017-09-03T15:21:25.150Z,42.20
2017-09-03T15:23:52.747Z,41.70
2017-09-03T15:26:20.341Z,42.90
2017-09-03T15:28:48.280Z,42.60
2017-09-03T15:31:17.511Z,42.60
2017-09-03T15:33:45.091Z,42.60
2017-09-03T15:36:12.709Z,43.00
2017-09-03T15:38:40.294Z,43.80
2017-09-03T15:41:08.024Z,44.30
2017-09-03T15:43:35.625Z,44.00
2017-09-03T15:46:03.636Z,44.20
2017-09-03T15:48:31.208Z,45.90
2017-09-03T15:50:58.832Z,45.70
2017-09-03T15:53:26.431Z,46.20
2017-09-03T15:55:54.015Z,47.90
2017-09-03T15:58:21.628Z,47.20
2017-09-03T16:00:49.278Z,47.30
2017-09-03T16:03:17.253Z,47.70
2017-09-03T16:05:44.824Z,47.10
2017-09-03T16:08:12.432Z,47.70
2017-09-03T16:10:40.006Z,47.90
2017-09-03T16:13:07.592Z,48.30
2017-09-03T16:15:35.209Z,48.20
2017-09-03T16:18:02.799Z,47.70
2017-09-03T16:20:30.650Z,47.10
2017-09-03T16:22:58.228Z,46.90
2017-09-03T16:25:25.820Z,47.30
2017-09-03T16:27:53.765Z,46.80
2017-09-03T16:30:21.378Z,48.50
2017-09-03T16:32:48.988Z,47.10
2017-09-03T16:35:16.572Z,47.00
2017-09-03T16:37:44.534Z,47.90
2017-09-03T16:40:12.121Z,47.50
2017-09-03T16:42:39.712Z,47.40
2017-09-03T16:45:07.294Z,49.30
2017-09-03T16:47:34.918Z,50.40
2017-09-03T16:50:02.563Z,50.50
2017-09-03T16:52:30.150Z,50.80
2017-09-03T16:54:58.069Z,51.80
2017-09-03T16:57:25.633Z,52.20
2017-09-03T16:59:53.278Z,52.70
2017-09-03T17:02:20.927Z,53.40
2017-09-03T17:04:48.484Z,54.10
2017-09-03T17:07:16.097Z,55.10
2017-09-03T17:09:43.679Z,56.50
2017-09-03T17:12:11.557Z,57.60
2017-09-03T17:14:39.137Z,59.10
2017-09-03T17:17:06.714Z,58.30
2017-09-03T17:19:34.327Z,59.30
2017-09-03T17:22:01.866Z,58.70
2017-09-03T17:24:29.454Z,58.60
2017-09-03T17:26:57.038Z,58.20
2017-09-03T17:29:25.007Z,59.00
2017-09-03T17:31:56.049Z,60.40
2017-09-03T17:34:24.612Z,61.80
2017-09-03T17:36:57.852Z,62.70
2017-09-03T17:39:25.783Z,62.80
2017-09-03T17:45:00.128Z,64.70
2017-09-03T17:47:27.703Z,65.50
2017-09-03T17:49:55.268Z,65.60
2017-09-03T17:52:23.625Z,66.70
2017-09-03T17:54:51.202Z,66.70
2017-09-03T17:57:19.558Z,66.70
2017-09-03T17:59:47.424Z,66.70
2017-09-03T18:02:15.387Z,67.80
2017-09-03T18:04:43.003Z,68.70
2017-09-03T18:07:12.060Z,71.40
2017-09-03T18:09:39.717Z,72.00
2017-09-03T18:12:08.112Z,71.50
2017-09-03T18:14:35.738Z,71.80
2017-09-03T18:17:03.773Z,73.20
2017-09-03T18:19:32.539Z,74.80
2017-09-03T18:22:00.150Z,76.00
2017-09-03T18:24:27.737Z,77.10
2017-09-03T18:26:55.473Z,77.80
2017-09-03T18:29:24.826Z,79.40
2017-09-03T18:31:53.446Z,79.10
2017-09-03T18:34:21.038Z,79.10
2017-09-03T18:36:48.628Z,79.40
2017-09-03T18:39:29.028Z,79.20
2017-09-03T18:41:59.054Z,80.50
2017-09-03T18:44:26.663Z,81.50
2017-09-03T18:46:54.258Z,82.60
2017-09-03T18:49:21.863Z,83.60
2017-09-03T18:51:49.521Z,83.70
2017-09-03T18:54:19.777Z,85.00
2017-09-03T18:56:47.374Z,85.90
2017-09-03T18:59:14.940Z,85.80
2017-09-03T19:01:42.924Z,85.50
2017-09-03T19:04:10.493Z,85.30
2017-09-03T19:06:38.873Z,85.50
2017-09-03T19:09:06.485Z,86.10
2017-09-03T19:11:34.143Z,86.90
2017-09-03T19:14:01.742Z,87.60
2017-09-03T19:16:29.382Z,87.30
2017-09-03T19:18:57.520Z,88.00
2017-09-03T19:21:25.087Z,88.50
2017-09-03T19:23:52.677Z,89.00
2017-09-03T19:26:20.275Z,89.40
2017-09-03T19:28:48.453Z,89.30
2017-09-03T19:31:16.843Z,89.90
2017-09-03T19:33:44.469Z,89.80
2017-09-03T19:36:12.322Z,90.10
2017-09-03T19:38:43.799Z,90.50
2017-09-03T19:41:11.414Z,90.60
2017-09-03T19:43:40.966Z,91.00
2017-09-03T19:46:08.547Z,91.20
2017-09-03T19:48:36.178Z,91.10
2017-09-03T19:51:03.753Z,91.50
2017-09-03T19:53:31.697Z,91.50
2017-09-03T19:55:59.298Z,91.50
2017-09-03T19:58:26.883Z,91.80
2017-09-03T20:00:54.494Z,91.80
2017-09-03T20:03:22.857Z,92.00
2017-09-03T20:05:50.476Z,91.70
2017-09-03T20:08:18.066Z,91.40
2017-09-03T20:10:46.260Z,91.50
2017-09-03T20:13:14.637Z,91.90
2017-09-03T20:15:42.247Z,91.90
2017-09-03T20:18:09.870Z,92.10
2017-09-03T20:20:37.456Z,92.20
2017-09-03T20:23:05.058Z,92.10
2017-09-03T20:25:32.650Z,92.10
2017-09-03T20:28:00.549Z,92.10
2017-09-03T20:30:28.168Z,92.30
2017-09-03T20:32:55.796Z,92.30
2017-09-03T20:35:23.454Z,92.20
2017-09-03T20:37:51.063Z,92.30
2017-09-03T20:40:18.683Z,92.50
2017-09-03T20:42:46.267Z,92.70
2017-09-03T20:45:14.187Z,93.00
2017-09-03T20:47:41.786Z,92.70
2017-09-03T20:50:09.502Z,92.70
2017-09-03T20:52:37.111Z,92.90
2017-09-03T20:55:04.713Z,92.60
2017-09-03T20:57:32.311Z,92.60
2017-09-03T21:00:01.662Z,92.50
2017-09-03T21:02:29.862Z,92.30
2017-09-03T21:04:57.451Z,92.50
2017-09-03T21:07:25.037Z,92.70
2017-09-03T21:09:52.711Z,93.20
2017-09-03T21:12:21.075Z,93.30
2017-09-03T21:14:48.690Z,93.30
2017-09-03T21:17:16.285Z,93.50
2017-09-03T21:19:44.236Z,93.50
2017-09-03T21:22:11.818Z,93.70
2017-09-03T21:24:39.938Z,93.60
2017-09-03T21:27:07.546Z,93.40
2017-09-03T21:29:35.148Z,93.20
2017-09-03T21:32:03.008Z,93.30
2017-09-03T21:34:30.629Z,93.50
2017-09-03T21:36:58.207Z,93.90
2017-09-03T21:39:25.864Z,94.10
2017-09-03T21:41:53.458Z,94.00
2017-09-03T21:44:21.064Z,94.20
2017-09-03T21:46:48.671Z,94.20
2017-09-03T21:49:16.583Z,94.30
2017-09-03T21:51:44.157Z,94.40
2017-09-03T21:54:11.724Z,94.60
2017-09-03T21:56:39.349Z,94.50
2017-09-03T21:59:06.942Z,94.60
2017-09-03T22:01:34.576Z,94.70
2017-09-03T22:04:02.177Z,94.80
2017-09-03T22:06:30.105Z,94.60
2017-09-03T22:08:57.697Z,94.60
2017-09-03T22:14:18.453Z,95.20
2017-09-03T22:16:46.031Z,94.80
2017-09-03T22:19:13.908Z,94.80
2017-09-03T22:21:41.509Z,94.40
2017-09-03T22:24:09.096Z,94.20
2017-09-03T22:26:36.716Z,94.20
2017-09-03T22:29:04.290Z,94.30
2017-09-03T22:31:32.857Z,94.40
2017-09-03T22:34:00.431Z,94.40
2017-09-03T22:36:28.344Z,94.90
2017-09-03T22:38:55.930Z,94.90
2017-09-03T22:41:23.502Z,94.90
2017-09-03T22:43:51.083Z,95.00
2017-09-03T22:46:18.672Z,94.90
2017-09-03T22:48:46.264Z,94.90
2017-09-03T22:51:13.837Z,95.10
2017-09-03T22:53:41.771Z,95.30
2017-09-03T22:56:09.338Z,95.30
2017-09-03T22:58:36.907Z,95.40
2017-09-03T23:01:04.500Z,95.50
2017-09-03T23:03:32.067Z,95.50
2017-09-03T23:05:59.671Z,95.30
2017-09-03T23:08:27.241Z,95.30
2017-09-03T23:10:55.117Z,95.40
2017-09-03T23:13:22.689Z,95.40
2017-09-03T23:15:50.327Z,95.40
2017-09-03T23:18:17.925Z,95.40
2017-09-03T23:20:45.536Z,95.40
2017-09-03T23:23:13.134Z,95.60
2017-09-03T23:25:40.742Z,95.60
2017-09-03T23:28:08.622Z,95.80
2017-09-03T23:30:36.187Z,95.50
2017-09-03T23:33:03.756Z,95.60
2017-09-03T23:35:31.350Z,95.80
2017-09-03T23:37:58.924Z,95.80
2017-09-03T23:40:26.514Z,95.80
2017-09-03T23:42:54.089Z,95.90
2017-09-03T23:45:22.042Z,95.90
2017-09-03T23:47:49.625Z,95.70
2017-09-03T23:50:17.215Z,95.90
2017-09-03T23:52:44.824Z,96.00
2017-09-03T23:55:12.408Z,95.80
2017-09-03T23:57:40.016Z,95.90
